Time;durP1;ratioP1;P1;durP2;ratioP2;P2;SDS_P1;SDS_P2;PMS_P1;PMS_P2;Temp;Humidity;BMP_temperature;BMP_pressure;BME280_temperature;BME280_humidity;BME280_pressure;Samples;Min_cycle;Max_cycle;Signal;HPM_P1;HPM_P2
2021/06/15 00:01:33;;;;;;;15.43;11.85;;;;;;;14.48;100.00;99304.39;1813357;79;21056;-66
2021/06/15 00:04:00;;;;;;;13.30;11.88;;;;;;;14.48;100.00;99308.99;1803493;77;21103;-64
2021/06/15 00:06:26;;;;;;;19.05;12.58;;;;;;;14.47;100.00;99310.06;1781644;79;20960;-66
2021/06/15 00:08:53;;;;;;;17.02;11.97;;;;;;;14.42;100.00;99306.87;1811672;79;21831;-66
2021/06/15 00:11:19;;;;;;;12.90;11.60;;;;;;;14.41;100.00;99312.58;1809079;78;21030;-65
2021/06/15 00:13:46;;;;;;;11.57;10.38;;;;;;;14.40;100.00;99310.95;1812122;78;20968;-66
2021/06/15 00:16:12;;;;;;;12.30;11.10;;;;;;;14.40;100.00;99317.14;1812806;78;21816;-65
2021/06/15 00:18:40;;;;;;;11.95;9.58;;;;;;;14.43;100.00;99319.30;1811489;79;21424;-66
2021/06/15 00:21:08;;;;;;;11.50;10.40;;;;;;;14.47;100.00;99316.27;1744594;80;21631;-68
2021/06/15 00:23:34;;;;;;;16.45;11.63;;;;;;;14.50;100.00;99317.59;1747916;80;20976;-67
2021/06/15 00:26:01;;;;;;;20.17;11.40;;;;;;;14.50;100.00;99314.37;1811912;77;20837;-66
2021/06/15 00:28:27;;;;;;;13.28;11.08;;;;;;;14.42;100.00;99314.97;1812331;78;21149;-66
2021/06/15 00:30:53;;;;;;;13.00;11.50;;;;;;;14.33;100.00;99307.22;1808041;78;21500;-67
2021/06/15 00:33:22;;;;;;;13.93;12.45;;;;;;;14.22;100.00;99304.37;1806685;78;20967;-66
2021/06/15 00:35:48;;;;;;;15.28;11.70;;;;;;;14.17;100.00;99305.22;1783937;78;21046;-65
2021/06/15 00:38:15;;;;;;;13.48;12.13;;;;;;;14.13;100.00;99297.41;1811653;77;20999;-66
2021/06/15 00:40:43;;;;;;;25.77;12.55;;;;;;;14.08;100.00;99297.45;1794062;78;22068;-67
2021/06/15 00:43:10;;;;;;;17.27;12.75;;;;;;;13.99;100.00;99293.23;1809247;79;20886;-67
2021/06/15 00:45:36;;;;;;;17.92;13.55;;;;;;;13.92;100.00;99288.15;1814025;79;21540;-66
2021/06/15 00:48:05;;;;;;;16.27;12.88;;;;;;;13.90;100.00;99293.02;1813515;78;21019;-67
2021/06/15 00:50:35;;;;;;;13.22;11.97;;;;;;;13.90;100.00;99291.67;1811187;77;20897;-67
2021/06/15 00:53:01;;;;;;;18.40;13.38;;;;;;;13.91;100.00;99285.20;1772716;79;21154;-66
2021/06/15 00:55:30;;;;;;;16.60;14.18;;;;;;;13.89;100.00;99284.67;1795816;79;20990;-68
2021/06/15 00:57:56;;;;;;;15.23;13.68;;;;;;;13.89;100.00;99293.28;1798682;79;21094;-67
2021/06/15 01:00:24;;;;;;;14.30;12.80;;;;;;;13.88;100.00;99294.39;1808847;77;21523;-66
2021/06/15 01:02:56;;;;;;;15.68;14.23;;;;;;;13.84;100.00;99288.77;1809059;78;20944;-69
2021/06/15 01:05:25;;;;;;;15.60;12.05;;;;;;;13.84;100.00;99293.33;1814451;77;21151;-67
2021/06/15 01:08:32;;;;;;;14.78;13.28;;;;;;;13.80;100.00;99295.00;1813361;77;20912;-67
2021/06/15 01:11:27;;;;;;;15.32;13.68;;;;;;;13.79;100.00;99290.67;1812365;77;20902;-67
2021/06/15 01:14:17;;;;;;;15.50;12.63;;;;;;;13.77;100.00;99282.88;1803900;78;20956;-67
2021/06/15 01:16:55;;;;;;;17.82;13.95;;;;;;;13.76;100.00;99287.99;1814576;77;21506;-68
2021/06/15 01:19:51;;;;;;;18.30;14.25;;;;;;;13.76;100.00;99289.89;1812474;78;21140;-67
2021/06/15 01:22:39;;;;;;;15.68;13.28;;;;;;;13.75;100.00;99295.84;1781646;79;20910;-67
2021/06/15 01:25:24;;;;;;;17.85;13.98;;;;;;;13.69;100.00;99292.90;1814805;78;20956;-67
2021/06/15 01:27:54;;;;;;;16.25;13.72;;;;;;;13.68;100.00;99292.65;1792762;79;21010;-67
2021/06/15 01:30:23;;;;;;;16.20;14.50;;;;;;;13.61;100.00;99291.61;1780457;79;20933;-68
2021/06/15 01:32:57;;;;;;;15.05;12.80;;;;;;;13.59;100.00;99283.53;1801111;79;21800;-66
2021/06/15 01:35:25;;;;;;;18.45;14.47;;;;;;;13.58;100.00;99279.23;1812198;77;21133;-67
2021/06/15 01:38:07;;;;;;;16.12;14.53;;;;;;;13.54;100.00;99274.93;1814663;77;21534;-68
2021/06/15 01:40:41;;;;;;;14.95;13.45;;;;;;;13.49;100.00;99277.12;1800795;79;20961;-67
2021/06/15 01:43:16;;;;;;;20.05;14.43;;;;;;;13.46;100.00;99280.38;1803933;77;21523;-67
2021/06/15 01:45:47;;;;;;;17.55;15.18;;;;;;;13.44;100.00;99277.15;1812089;77;21943;-67
2021/06/15 01:48:38;;;;;;;15.25;13.65;;;;;;;13.46;100.00;99277.68;1810490;79;20977;-68
2021/06/15 01:51:06;;;;;;;16.50;14.05;;;;;;;13.46;100.00;99276.88;1813966;78;21040;-68
2021/06/15 01:53:36;;;;;;;20.25;15.23;;;;;;;13.41;100.00;99283.11;1779836;78;20952;-68
2021/06/15 01:56:04;;;;;;;16.45;14.65;;;;;;;13.43;100.00;99280.94;1807749;78;20945;-68
2021/06/15 01:58:34;;;;;;;16.45;14.33;;;;;;;13.46;100.00;99280.38;1811077;79;22357;-67
2021/06/15 02:01:01;;;;;;;22.60;14.63;;;;;;;13.51;100.00;99281.69;1787831;78;20928;-66
2021/06/15 02:03:31;;;;;;;17.32;13.28;;;;;;;13.57;100.00;99287.05;1812404;77;20917;-67
2021/06/15 02:06:01;;;;;;;15.88;14.38;;;;;;;13.62;100.00;99286.49;1811774;79;20924;-67
2021/06/15 02:08:30;;;;;;;15.25;13.68;;;;;;;13.65;100.00;99291.87;1811506;79;21074;-67
2021/06/15 02:11:00;;;;;;;14.15;12.85;;;;;;;13.72;100.00;99295.05;1812245;79;21064;-68
2021/06/15 02:13:41;;;;;;;16.43;13.93;;;;;;;13.75;100.00;99297.19;1780288;78;21535;-67
2021/06/15 02:16:27;;;;;;;15.28;13.70;;;;;;;13.79;100.00;99299.59;1813447;77;21561;-66
2021/06/15 02:18:57;;;;;;;15.75;14.07;;;;;;;13.84;100.00;99298.72;1778267;79;20913;-67
2021/06/15 02:21:34;;;;;;;15.13;13.72;;;;;;;13.89;100.00;99296.81;1809222;76;21024;-66
2021/06/15 02:24:02;;;;;;;14.55;13.03;;;;;;;13.93;100.00;99305.14;1810638;79;21110;-66
2021/06/15 02:26:30;;;;;;;19.52;12.55;;;;;;;13.94;100.00;99300.81;1812856;79;20997;-67
2021/06/15 02:28:59;;;;;;;13.93;12.53;;;;;;;13.97;100.00;99306.74;1814918;77;20932;-66
2021/06/15 02:31:34;;;;;;;13.83;12.43;;;;;;;14.03;100.00;99305.59;1798889;79;20983;-67
2021/06/15 02:34:07;;;;;;;;;;;;;;;14.05;100.00;99302.08;1813149;79;20818;-66
2021/06/15 02:36:40;;;;;;;14.25;12.07;;;;;;;14.11;100.00;99303.63;1812985;78;21090;-68
2021/06/15 02:39:14;;;;;;;13.80;12.37;;;;;;;14.14;100.00;99307.94;1799261;77;21042;-70
2021/06/15 02:41:42;;;;;;;14.33;12.37;;;;;;;14.19;100.00;99304.94;1814159;77;21247;-67
2021/06/15 02:44:15;;;;;;;;;;;;;;;14.22;100.00;99306.52;1814621;79;21020;-70
2021/06/15 02:46:41;;;;;;;13.90;12.43;;;;;;;14.27;100.00;99310.52;1810569;79;20425;-68
2021/06/15 02:49:16;;;;;;;16.60;12.85;;;;;;;14.34;100.00;99302.09;1812217;78;21176;-67
2021/06/15 02:52:06;;;;;;;17.42;12.43;;;;;;;14.43;100.00;99311.72;1797334;79;21452;-68
2021/06/15 02:54:58;;;;;;;16.62;11.93;;;;;;;14.49;100.00;99315.44;1812214;77;20981;-67
2021/06/15 02:57:26;;;;;;;15.70;12.65;;;;;;;14.62;100.00;99321.29;1813386;77;21516;-65
2021/06/15 02:59:56;;;;;;;14.73;12.23;;;;;;;14.73;100.00;99324.16;1811306;78;21051;-67
2021/06/15 03:02:24;;;;;;;13.80;10.82;;;;;;;14.79;100.00;99318.39;1792939;78;21871;-67
2021/06/15 03:04:51;;;;;;;18.05;11.22;;;;;;;14.88;100.00;99316.42;1813607;77;24989;-70
2021/06/15 03:07:20;;;;;;;12.78;11.33;;;;;;;14.95;100.00;99319.03;1808535;79;21011;-68
2021/06/15 03:09:51;;;;;;;13.80;10.80;;;;;;;15.02;100.00;99324.10;1813814;77;21047;-71
2021/06/15 03:12:26;;;;;;;12.53;11.25;;;;;;;15.10;100.00;99319.40;1811235;77;20965;-70
2021/06/15 03:15:07;;;;;;;11.38;10.18;;;;;;;15.14;100.00;99322.31;1809942;77;21185;-71
2021/06/15 03:17:40;;;;;;;13.85;10.38;;;;;;;15.18;100.00;99320.66;1798263;77;20897;-69
2021/06/15 03:20:10;;;;;;;13.95;10.05;;;;;;;15.25;100.00;99316.25;1804573;77;20866;-68
2021/06/15 03:22:56;;;;;;;11.03;9.93;;;;;;;15.38;100.00;99324.98;1801436;78;21004;-67
2021/06/15 03:25:28;;;;;;;12.65;10.80;;;;;;;15.51;100.00;99332.95;1814057;77;21039;-66
2021/06/15 03:28:05;;;;;;;13.72;9.43;;;;;;;15.61;100.00;99321.98;1813355;78;21198;-66
2021/06/15 03:30:34;;;;;;;16.55;11.12;;;;;;;15.67;100.00;99323.50;1812894;78;20957;-67
2021/06/15 03:33:09;;;;;;;13.30;10.03;;;;;;;15.73;100.00;99316.97;1809252;77;21034;-67
2021/06/15 03:35:43;;;;;;;12.23;9.88;;;;;;;15.84;100.00;99323.02;1809488;79;21039;-66
2021/06/15 03:38:13;;;;;;;11.85;9.63;;;;;;;15.95;100.00;99319.59;1813004;77;20948;-66
2021/06/15 03:40:50;;;;;;;;;;;;;;;16.01;100.00;99321.93;1815399;77;21080;-66
2021/06/15 03:43:19;;;;;;;18.15;10.80;;;;;;;16.10;100.00;99320.72;1812956;77;20401;-68
2021/06/15 03:45:48;;;;;;;;;;;;;;;16.18;100.00;99321.39;1813898;79;20924;-66
2021/06/15 03:48:15;;;;;;;14.10;11.03;;;;;;;16.29;100.00;99328.78;1784190;79;20285;-68
2021/06/15 03:50:41;;;;;;;12.40;10.03;;;;;;;16.41;100.00;99324.25;1780152;80;20991;-68
2021/06/15 03:53:10;;;;;;;10.68;8.78;;;;;;;16.53;100.00;99323.78;1780353;80;21550;-68
2021/06/15 03:55:39;;;;;;;13.85;9.33;;;;;;;16.61;100.00;99321.72;1781911;78;21059;-68
2021/06/15 03:58:07;;;;;;;12.23;9.58;;;;;;;16.62;100.00;99319.28;1776699;79;21062;-67
2021/06/15 04:00:36;;;;;;;12.73;9.33;;;;;;;16.70;100.00;99328.06;1780809;80;21525;-69
2021/06/15 04:03:06;;;;;;;10.55;9.45;;;;;;;16.86;100.00;99330.77;1778821;80;21066;-67
2021/06/15 04:05:34;;;;;;;11.53;8.30;;;;;;;16.96;100.00;99329.77;1779604;79;21137;-68
2021/06/15 04:08:05;;;;;;;11.80;9.68;;;;;;;17.03;100.00;99337.52;1750407;80;20927;-67
2021/06/15 04:10:31;;;;;;;9.25;8.25;;;;;;;16.96;100.00;99332.48;1780445;80;21765;-68
2021/06/15 04:13:00;;;;;;;11.93;9.30;;;;;;;16.93;100.00;99337.95;1779363;78;21083;-71
2021/06/15 04:15:27;;;;;;;12.40;9.15;;;;;;;16.99;100.00;99334.59;1751307;78;21442;-69
2021/06/15 04:17:57;;;;;;;13.18;8.88;;;;;;;17.07;100.00;99342.00;1781615;80;21858;-68
2021/06/15 04:20:29;;;;;;;12.37;8.73;;;;;;;17.25;100.00;99335.44;1778297;80;20881;-67
2021/06/15 04:22:58;;;;;;;15.50;9.13;;;;;;;17.28;100.00;99346.47;1782628;78;21011;-67
2021/06/15 04:25:26;;;;;;;;;;;;;;;17.22;100.00;99349.58;1784284;79;20931;-70
2021/06/15 04:27:52;;;;;;;10.68;9.10;;;;;;;17.16;100.00;99348.89;1778257;80;20143;-69
2021/06/15 04:30:20;;;;;;;13.70;10.08;;;;;;;17.09;100.00;99351.20;1782340;78;21133;-71
2021/06/15 04:32:51;;;;;;;13.25;9.35;;;;;;;17.18;100.00;99349.40;1771599;78;21037;-68
2021/06/15 04:35:29;;;;;;;12.53;10.10;;;;;;;17.37;100.00;99360.14;1779569;79;20904;-69
2021/06/15 04:38:00;;;;;;;22.50;9.80;;;;;;;17.63;100.00;99356.87;1779594;79;21034;-69
2021/06/15 04:40:31;;;;;;;15.18;9.93;;;;;;;17.87;100.00;99349.84;1776372;78;21028;-71
2021/06/15 04:43:03;;;;;;;13.40;9.93;;;;;;;18.07;100.00;99351.28;1779231;80;21228;-70
2021/06/15 04:45:38;;;;;;;12.68;9.40;;;;;;;18.17;100.00;99347.75;1775554;78;21119;-70
2021/06/15 04:48:09;;;;;;;9.45;8.33;;;;;;;18.26;100.00;99349.73;1778620;79;20976;-70
2021/06/15 04:50:36;;;;;;;9.58;8.35;;;;;;;18.38;100.00;99349.98;1775991;78;21071;-69
2021/06/15 04:53:04;;;;;;;12.78;8.95;;;;;;;18.52;100.00;99353.42;1781538;79;21035;-69
2021/06/15 04:55:37;;;;;;;12.93;8.43;;;;;;;18.64;100.00;99352.29;1773389;79;21990;-72
2021/06/15 04:58:06;;;;;;;13.43;9.23;;;;;;;18.78;100.00;99363.08;1779495;78;21043;-70
2021/06/15 05:00:33;;;;;;;12.93;8.10;;;;;;;18.97;100.00;99362.85;1782224;78;21565;-70
2021/06/15 05:02:59;;;;;;;11.80;8.48;;;;;;;19.20;100.00;99358.12;1777023;79;21031;-71
2021/06/15 05:05:26;;;;;;;13.75;7.95;;;;;;;19.39;100.00;99357.06;1779733;79;21162;-69
2021/06/15 05:08:05;;;;;;;10.45;8.50;;;;;;;19.42;100.00;99358.57;1767404;79;21624;-74
2021/06/15 05:10:32;;;;;;;;;;;;;;;19.65;100.00;99359.27;1781455;78;21059;-70
2021/06/15 05:12:59;;;;;;;12.33;8.28;;;;;;;19.87;100.00;99355.63;1776719;78;20159;-69
2021/06/15 05:15:27;;;;;;;11.03;8.28;;;;;;;20.03;100.00;99359.22;1779124;80;20984;-71
2021/06/15 05:17:56;;;;;;;12.63;8.35;;;;;;;20.00;100.00;99360.66;1778361;79;21214;-75
2021/06/15 05:20:27;;;;;;;12.13;8.10;;;;;;;20.10;100.00;99363.05;1785238;78;21163;-71
2021/06/15 05:23:08;;;;;;;14.25;8.43;;;;;;;20.27;100.00;99365.53;1782510;78;21687;-73
2021/06/15 05:25:35;;;;;;;10.32;8.33;;;;;;;20.26;100.00;99366.11;1782109;78;21039;-75
2021/06/15 05:28:02;;;;;;;11.88;8.35;;;;;;;20.42;100.00;99364.23;1779695;79;21074;-63
2021/06/15 05:30:29;;;;;;;13.60;8.30;;;;;;;20.55;100.00;99365.44;1795222;76;20972;-69
2021/06/15 05:32:56;;;;;;;9.67;7.90;;;;;;;20.44;100.00;99370.16;1811095;79;21142;-72
2021/06/15 05:35:24;;;;;;;11.40;8.13;;;;;;;20.30;100.00;99363.52;1804143;77;21015;-69
2021/06/15 05:37:56;;;;;;;12.63;8.83;;;;;;;20.38;100.00;99365.98;1790534;78;21602;-72
2021/06/15 05:40:27;;;;;;;13.90;8.53;;;;;;;20.60;100.00;99369.09;1775910;77;20996;-73
2021/06/15 05:42:56;;;;;;;12.33;8.48;;;;;;;21.04;100.00;99371.11;1780332;77;21229;-74
2021/06/15 05:45:22;;;;;;;14.25;7.90;;;;;;;21.32;100.00;99378.30;1775984;77;22192;-71
2021/06/15 05:47:49;;;;;;;9.95;7.55;;;;;;;21.46;100.00;99380.25;1777786;78;20980;-69
2021/06/15 05:50:16;;;;;;;9.80;7.47;;;;;;;21.47;100.00;99384.58;1783016;79;21022;-68
2021/06/15 05:52:46;;;;;;;11.55;7.80;;;;;;;21.54;100.00;99384.85;1775996;78;21040;-71
2021/06/15 05:55:13;;;;;;;11.08;8.05;;;;;;;21.61;100.00;99381.61;1776622;79;21107;-73
2021/06/15 05:57:40;;;;;;;11.65;8.48;;;;;;;21.76;100.00;99385.68;1780987;78;21138;-72
2021/06/15 06:00:08;;;;;;;10.95;7.58;;;;;;;22.03;100.00;99386.50;1780287;79;21051;-67
2021/06/15 06:02:37;;;;;;;11.18;8.80;;;;;;;22.16;100.00;99381.09;1743976;80;20972;-72
2021/06/15 06:10:23;;;;;;;12.13;7.70;;;;;;;22.34;100.00;99381.21;1744781;80;21210;-68
2021/06/15 06:12:52;;;;;;;11.88;8.95;;;;;;;22.68;100.00;99383.34;1781099;79;20968;-69
2021/06/15 06:15:20;;;;;;;11.28;7.83;;;;;;;22.88;100.00;99383.02;1747711;80;21083;-65
2021/06/15 06:17:46;;;;;;;11.30;7.53;;;;;;;23.18;100.00;99381.50;1780602;79;21122;-71
2021/06/15 06:20:14;;;;;;;9.83;8.08;;;;;;;23.24;100.00;99379.55;1744365;81;21055;-66
2021/06/15 06:22:41;;;;;;;9.80;7.62;;;;;;;23.32;100.00;99373.17;1745479;82;21150;-68
2021/06/15 06:25:09;;;;;;;15.32;8.53;;;;;;;23.41;100.00;99375.77;1749819;82;21720;-72
2021/06/15 06:27:36;;;;;;;10.32;8.25;;;;;;;23.63;100.00;99378.59;1779489;78;21359;-69
2021/06/15 06:30:05;;;;;;;11.25;8.20;;;;;;;23.81;100.00;99382.47;1780880;79;21542;-69
2021/06/15 06:32:32;;;;;;;11.73;7.42;;;;;;;23.86;100.00;99378.11;1747541;81;21005;-71
2021/06/15 06:35:02;;;;;;;9.55;7.92;;;;;;;23.86;100.00;99371.27;1747272;81;21482;-74
2021/06/15 06:37:28;;;;;;;10.13;6.65;;;;;;;23.65;100.00;99375.52;1777374;79;20992;-70
2021/06/15 06:39:55;;;;;;;10.43;7.15;;;;;;;23.68;100.00;99373.45;1789771;77;21000;-72
2021/06/15 06:42:22;;;;;;;16.07;7.85;;;;;;;24.08;100.00;99371.30;1796908;78;21515;-71
2021/06/15 06:44:48;;;;;;;10.25;7.12;;;;;;;24.28;100.00;99369.53;1795378;77;21003;-68
2021/06/15 06:47:17;;;;;;;7.62;6.80;;;;;;;24.45;100.00;99366.48;1798845;77;21131;-69
2021/06/15 06:49:45;;;;;;;12.18;7.80;;;;;;;24.44;100.00;99367.61;1798478;77;21110;-70
2021/06/15 06:52:12;;;;;;;8.50;7.07;;;;;;;24.48;100.00;99363.63;1795162;78;21056;-70
2021/06/15 06:54:38;;;;;;;8.30;6.70;;;;;;;24.23;100.00;99360.16;1808326;77;21031;-71
2021/06/15 06:57:06;;;;;;;9.30;7.07;;;;;;;24.36;100.00;99362.50;1781479;80;21617;-69
2021/06/15 06:59:32;;;;;;;8.60;6.60;;;;;;;24.56;100.00;99364.03;1778062;80;21178;-67
2021/06/15 07:01:59;;;;;;;10.05;5.92;;;;;;;24.52;100.00;99362.58;1763014;79;21383;-69
2021/06/15 07:04:26;;;;;;;5.92;5.30;;;;;;;24.65;100.00;99361.13;1747201;80;20937;-67
2021/06/15 07:06:54;;;;;;;8.10;5.60;;;;;;;25.08;100.00;99359.44;1743011;80;21031;-67
2021/06/15 07:09:21;;;;;;;7.03;6.30;;;;;;;25.08;100.00;99364.93;1807828;77;21123;-66
2021/06/15 07:11:48;;;;;;;10.10;6.67;;;;;;;25.45;100.00;99357.19;1796130;77;21152;-67
2021/06/15 07:14:14;;;;;;;8.83;6.72;;;;;;;25.45;100.00;99357.19;1798093;77;21480;-72
2021/06/15 07:16:43;;;;;;;8.10;6.22;;;;;;;25.71;100.00;99358.55;1791721;79;21483;-64
2021/06/15 07:19:10;;;;;;;8.60;6.42;;;;;;;25.98;100.00;99358.16;1791620;79;21060;-69
2021/06/15 07:21:36;;;;;;;8.00;5.50;;;;;;;26.01;100.00;99358.80;1785939;79;21013;-64
2021/06/15 07:24:05;;;;;;;9.95;6.28;;;;;;;25.85;100.00;99354.73;1796421;79;21143;-64
2021/06/15 07:26:31;;;;;;;9.43;6.17;;;;;;;25.95;100.00;99360.27;1805929;79;21067;-65
2021/06/15 07:28:59;;;;;;;9.58;5.92;;;;;;;26.19;100.00;99354.47;1778705;78;21483;-64
2021/06/15 07:31:26;;;;;;;11.97;5.97;;;;;;;26.46;100.00;99359.49;1793606;77;21027;-66
2021/06/15 07:33:53;;;;;;;8.95;6.20;;;;;;;26.37;100.00;99355.38;1777357;77;21028;-69
2021/06/15 07:36:24;;;;;;;7.97;5.25;;;;;;;26.37;100.00;99356.17;1768432;79;20972;-61
2021/06/15 07:38:51;;;;;;;7.03;5.25;;;;;;;26.33;100.00;99351.76;1785063;77;20981;-66
2021/06/15 07:41:18;;;;;;;10.82;6.20;;;;;;;26.22;100.00;99361.98;1785258;80;21079;-67
2021/06/15 07:43:45;;;;;;;;;;;;;;;26.44;99.21;99359.05;1726636;81;21091;-67
2021/06/15 07:46:14;;;;;;;10.70;5.85;;;;;;;26.46;98.70;99352.61;1784450;80;20318;-69
2021/06/15 07:48:40;;;;;;;6.97;5.80;;;;;;;26.29;97.96;99348.37;1777333;80;21144;-65
2021/06/15 07:51:07;;;;;;;11.70;5.90;;;;;;;26.41;98.99;99346.03;1783939;80;21226;-68
2021/06/15 07:53:33;;;;;;;9.28;6.08;;;;;;;26.50;97.97;99346.57;1784850;80;21558;-67
2021/06/15 07:56:00;;;;;;;8.85;5.95;;;;;;;26.45;98.81;99343.34;1743149;81;21069;-68
2021/06/15 07:58:27;;;;;;;8.60;5.45;;;;;;;26.13;98.31;99347.66;1790092;77;21551;-69
2021/06/15 08:00:53;;;;;;;6.70;4.60;;;;;;;26.23;97.79;99343.52;1777737;80;21098;-67
2021/06/15 08:03:20;;;;;;;7.45;5.15;;;;;;;26.39;97.45;99339.30;1778573;80;20885;-67
2021/06/15 08:05:47;;;;;;;8.28;5.45;;;;;;;26.61;98.71;99337.18;1729731;80;20964;-68
2021/06/15 08:08:13;;;;;;;8.17;6.10;;;;;;;26.78;96.00;99334.52;1774058;79;21119;-67
2021/06/15 08:10:40;;;;;;;8.50;5.33;;;;;;;26.72;94.42;99329.87;1789177;77;20952;-67
2021/06/15 08:13:07;;;;;;;6.97;5.40;;;;;;;26.85;97.68;99324.18;1790570;77;21183;-67
2021/06/15 08:15:33;;;;;;;5.05;4.30;;;;;;;27.04;92.54;99326.84;1802307;77;21012;-66
2021/06/15 08:18:03;;;;;;;7.05;5.42;;;;;;;27.05;91.69;99327.08;1787445;77;21491;-69
2021/06/15 08:20:31;;;;;;;11.95;4.67;;;;;;;27.13;90.06;99326.60;1773326;80;20893;-73
2021/06/15 08:22:59;;;;;;;9.00;5.55;;;;;;;27.15;88.62;99325.06;1780146;80;21131;-67
2021/06/15 08:25:29;;;;;;;9.23;5.00;;;;;;;27.02;88.48;99320.13;1753973;80;21304;-67
2021/06/15 08:27:55;;;;;;;9.28;5.50;;;;;;;27.04;91.61;99315.83;1740686;80;21045;-70
2021/06/15 08:30:23;;;;;;;9.03;5.20;;;;;;;27.11;89.29;99320.08;1791355;77;27266;-72
2021/06/15 08:32:49;;;;;;;6.92;4.65;;;;;;;27.27;89.52;99316.41;1779909;79;21043;-72
2021/06/15 08:35:16;;;;;;;7.83;4.93;;;;;;;27.32;87.80;99311.96;1763491;80;21541;-62
2021/06/15 08:37:43;;;;;;;6.37;4.00;;;;;;;27.39;85.45;99306.55;1784964;78;21095;-69
2021/06/15 08:40:10;;;;;;;5.53;4.15;;;;;;;27.45;82.85;99307.80;1781513;79;20996;-69
2021/06/15 08:42:38;;;;;;;6.12;4.22;;;;;;;27.55;83.27;99307.73;1781947;79;20998;-76
2021/06/15 08:45:07;;;;;;;7.78;4.58;;;;;;;27.84;87.01;99303.98;1786216;78;21678;-69
2021/06/15 08:47:44;;;;;;;7.53;4.22;;;;;;;28.00;81.95;99308.13;1779939;79;21045;-69
2021/06/15 08:50:17;;;;;;;9.03;4.50;;;;;;;27.80;80.77;99301.93;1782506;80;21353;-71
2021/06/15 08:52:44;;;;;;;6.85;4.37;;;;;;;28.10;79.89;99311.36;1784541;79;21536;-72
2021/06/15 08:55:13;;;;;;;9.03;4.37;;;;;;;28.51;78.09;99305.89;1785379;78;20930;-73
2021/06/15 08:57:40;;;;;;;11.18;4.40;;;;;;;28.27;79.68;99296.98;1783072;79;21052;-70
2021/06/15 09:00:12;;;;;;;5.72;3.92;;;;;;;28.47;78.11;99301.73;1748156;80;21041;-73
2021/06/15 09:02:44;;;;;;;5.65;3.83;;;;;;;28.72;76.93;99295.03;1783470;78;21141;-74
2021/06/15 09:05:18;;;;;;;4.58;3.90;;;;;;;28.47;77.08;99295.39;1785170;79;21049;-69
2021/06/15 09:08:08;;;;;;;6.42;4.28;;;;;;;28.24;76.84;99292.20;1783165;78;21049;-64
2021/06/15 09:10:42;;;;;;;5.08;4.35;;;;;;;28.12;79.02;99289.70;1785023;80;21006;-74
2021/06/15 09:13:38;;;;;;;3.77;3.47;;;;;;;27.79;78.43;99288.53;1786100;78;21080;-76
2021/06/15 09:16:38;;;;;;;5.40;3.93;;;;;;;27.82;77.33;99287.81;1780819;78;21492;-74
2021/06/15 09:19:23;;;;;;;12.07;4.47;;;;;;;28.21;73.54;99288.23;1785144;78;21585;-72
2021/06/15 09:21:53;;;;;;;6.65;3.80;;;;;;;28.33;73.89;99278.89;1782940;78;21071;-74
2021/06/15 09:24:23;;;;;;;5.97;4.03;;;;;;;28.75;74.87;99290.12;1782046;78;20982;-73
2021/06/15 09:27:08;;;;;;;8.45;3.92;;;;;;;28.92;74.64;99274.86;1780796;80;21116;-67
2021/06/15 09:29:54;;;;;;;4.47;3.90;;;;;;;29.09;72.13;99278.95;1786549;79;21097;-70
2021/06/15 09:32:35;;;;;;;7.20;4.22;;;;;;;28.72;71.66;99268.02;1785486;79;21496;-72
2021/06/15 09:35:03;;;;;;;5.40;4.10;;;;;;;27.92;74.11;99282.99;1786843;79;21084;-61
2021/06/15 09:37:50;;;;;;;5.25;3.60;;;;;;;27.78;72.24;99279.48;1781146;78;21485;-69
2021/06/15 09:40:28;;;;;;;8.95;3.70;;;;;;;28.28;70.78;99274.31;1770522;79;21525;-73
2021/06/15 09:43:06;;;;;;;;;;;;;;;28.80;67.41;99269.05;1778302;78;21138;-76
2021/06/15 09:45:39;;;;;;;3.15;2.85;;;;;;;29.08;65.02;99271.03;1775780;80;20167;-62
2021/06/15 09:48:35;;;;;;;7.55;3.33;;;;;;;29.17;63.43;99266.75;1776936;80;21045;-63
2021/06/15 09:51:05;;;;;;;10.00;4.17;;;;;;;29.04;63.14;99266.85;1776999;78;20982;-70
2021/06/15 09:53:43;;;;;;;4.75;3.50;;;;;;;28.73;65.39;99272.34;1774012;79;21417;-71
2021/06/15 09:56:13;;;;;;;11.33;3.80;;;;;;;28.41;64.69;99276.39;1783225;79;21556;-71
2021/06/15 09:58:46;;;;;;;8.20;3.10;;;;;;;28.25;70.39;99264.83;1786364;79;20937;-70
2021/06/15 10:01:36;;;;;;;6.10;3.30;;;;;;;28.63;64.39;99269.70;1782449;80;21496;-71
2021/06/15 10:04:23;;;;;;;4.75;3.47;;;;;;;28.62;67.81;99267.54;1785768;78;21049;-70
2021/06/15 10:06:54;;;;;;;6.37;3.37;;;;;;;28.64;67.93;99263.03;1785889;78;21740;-72
2021/06/15 10:09:32;;;;;;;5.70;3.62;;;;;;;28.57;68.49;99260.20;1763941;79;21164;-72
2021/06/15 10:12:05;;;;;;;6.58;3.50;;;;;;;28.35;66.78;99259.98;1784515;79;21005;-72
2021/06/15 10:14:34;;;;;;;8.10;3.20;;;;;;;27.95;65.68;99261.58;1780759;78;21048;-72
2021/06/15 10:17:01;;;;;;;5.12;3.52;;;;;;;27.74;69.05;99255.79;1782907;78;21080;-72
2021/06/15 10:19:28;;;;;;;5.30;3.58;;;;;;;27.79;67.26;99248.55;1782819;78;21017;-71
2021/06/15 10:21:55;;;;;;;3.53;3.17;;;;;;;28.23;66.77;99254.75;1796743;78;21141;-71
2021/06/15 10:24:24;;;;;;;5.60;3.27;;;;;;;28.97;64.24;99248.84;1803660;77;20913;-68
2021/06/15 10:26:52;;;;;;;3.45;3.12;;;;;;;29.26;61.64;99249.83;1813224;78;21070;-69
2021/06/15 10:29:18;;;;;;;7.42;3.42;;;;;;;29.40;57.65;99238.03;1813569;77;21117;-70
2021/06/15 10:31:47;;;;;;;3.67;2.90;;;;;;;29.28;59.45;99241.95;1811793;77;21047;-67
2021/06/15 10:34:14;;;;;;;4.12;2.92;;;;;;;29.34;56.29;99240.39;1811191;79;21975;-69
2021/06/15 10:36:51;;;;;;;9.77;3.40;;;;;;;29.30;58.98;99240.16;1752888;78;20929;-68
2021/06/15 10:39:39;;;;;;;5.83;3.30;;;;;;;28.67;59.91;99241.55;1743491;80;21694;-68
2021/06/15 10:42:18;;;;;;;;;;;;;;;28.14;62.38;99245.39;1780182;79;21708;-72
2021/06/15 10:44:43;;;;;;;3.60;3.10;;;;;;;27.88;63.33;99231.16;1778841;78;20253;-67
2021/06/15 10:47:12;;;;;;;7.72;3.20;;;;;;;27.79;63.06;99227.28;1797909;78;21534;-66
2021/06/15 10:50:00;;;;;;;3.22;2.92;;;;;;;27.44;64.34;99226.86;1746304;81;20964;-64
2021/06/15 10:53:04;;;;;;;6.05;2.98;;;;;;;27.54;65.62;99225.63;1745963;80;21535;-68
2021/06/15 10:56:01;;;;;;;3.52;3.22;;;;;;;28.02;63.91;99231.87;1791997;79;21139;-70
2021/06/15 10:58:47;;;;;;;3.00;2.70;;;;;;;28.19;61.93;99225.73;1811609;77;21463;-71
2021/06/15 11:01:28;;;;;;;3.72;3.02;;;;;;;27.86;60.77;99227.20;1809383;78;22013;-69
2021/06/15 11:04:14;;;;;;;3.50;3.20;;;;;;;27.74;62.49;99219.95;1810989;77;21027;-69
2021/06/15 11:06:47;;;;;;;5.85;3.45;;;;;;;27.64;64.10;99217.27;1813715;76;20991;-71
2021/06/15 11:09:21;;;;;;;8.73;3.58;;;;;;;27.61;65.51;99219.41;1808578;77;21036;-70
2021/06/15 11:12:18;;;;;;;4.12;3.22;;;;;;;27.28;69.67;99222.34;1811048;79;21550;-68
2021/06/15 11:15:11;;;;;;;4.50;3.55;;;;;;;27.09;68.81;99217.73;1812786;77;21134;-71
2021/06/15 11:17:56;;;;;;;4.55;3.65;;;;;;;26.82;68.92;99217.55;1810783;79;20913;-67
2021/06/15 11:20:34;;;;;;;3.67;3.27;;;;;;;26.76;71.20;99216.30;1809053;79;21610;-68
2021/06/15 11:23:12;;;;;;;;;;;;;;;27.22;71.12;99213.39;1815214;78;21928;-69
2021/06/15 11:25:51;;;;;;;4.60;3.47;;;;;;;27.83;67.61;99226.55;1810229;77;20150;-67
2021/06/15 11:28:47;;;;;;;4.87;3.08;;;;;;;28.21;61.87;99225.36;1812050;77;21163;-67
2021/06/15 11:31:26;;;;;;;5.28;3.22;;;;;;;28.29;63.62;99220.10;1801262;77;21117;-68
2021/06/15 11:34:15;;;;;;;4.03;3.20;;;;;;;28.15;63.08;99214.45;1811684;77;21032;-68
2021/06/15 11:36:55;;;;;;;5.05;3.77;;;;;;;27.94;63.47;99213.09;1810634;77;20963;-70
2021/06/15 11:39:29;;;;;;;6.22;3.75;;;;;;;27.31;64.43;99205.06;1804224;78;21051;-69
2021/06/15 11:42:34;;;;;;;4.92;3.47;;;;;;;27.16;67.74;99192.25;1811760;78;21152;-70
2021/06/15 11:45:17;;;;;;;3.90;3.10;;;;;;;26.99;74.33;99180.42;1811768;77;21578;-67
2021/06/15 11:47:52;;;;;;;4.12;3.33;;;;;;;27.18;77.40;99170.64;1804033;77;21087;-69
2021/06/15 11:50:26;;;;;;;5.22;3.52;;;;;;;27.88;76.01;99164.97;1811498;79;20953;-68
2021/06/15 11:53:03;;;;;;;4.37;3.27;;;;;;;28.26;71.42;99163.52;1805529;78;21036;-70